^^
Datos históricos de la estación: Murcia-Puente Tocinos
Diario Informe para Septiembre 4, 2019 Unidades:  Ambas    Ingés   Métrico
Diario Semanal Mensual Anual
  Máxima: Mínima: Promedio:
Temperatura: 75.9 °F /  24.4 °C 55.2 °F /  12.9 °C 63.9 °F /  17.7 °C
Punto de rocio: 55.6 °F /  13.1 °C 35.8 °F /  2.1 °C 49.6 °F /  9.8 °C
Humedad: 87% 26% 63%
Velocidad viento: 13mph /  20.9km/h - 4.7mph /  7.6km/h
Racha viento: 23.5mph /  37.8km/h - -
Viento- - SSO
Presión: 29.9 in /  1012.5 hPa 29.8 in /  1009.4 hPa -
Precipitación: 0 in /  0.0 mm    
 
 
Tabla de datos para Septiembre 4, 2019
Hora Temperatura Punto de rocio Presión Viento Velocidad viento Racha viento Humedad Intensidad lluvia(por hora) Nubes
00:04 59.2 °F /  15.1 °C 52.3 °F /  11.3 °C 29.9in /  1011.8hPa NE 5.2mph /  8.4km/h 7mph /  11.3km/h 78% 0in /  0.0mm
00:09 59.2 °F /  15.1 °C 52.3 °F /  11.3 °C 29.9in /  1011.8hPa NE 4.8mph /  7.8km/h 7mph /  11.3km/h 78% 0in /  0.0mm
00:14 59.2 °F /  15.1 °C 52.3 °F /  11.3 °C 29.9in /  1011.8hPa NNE 3.6mph /  5.8km/h 7mph /  11.3km/h 78% 0in /  0.0mm
00:19 59.2 °F /  15.1 °C 52.3 °F /  11.3 °C 29.9in /  1011.8hPa NE 3.6mph /  5.8km/h 6.2mph /  10km/h 78% 0in /  0.0mm
00:24 59 °F /  15 °C 52.2 °F /  11.2 °C 29.9in /  1011.5hPa NE 3.6mph /  5.8km/h 6mph /  9.7km/h 78% 0in /  0.0mm
00:29 59 °F /  15 °C 52 °F /  11.1 °C 29.9in /  1011.5hPa NE 3.4mph /  5.5km/h 6.9mph /  11.1km/h 77.7% 0in /  0.0mm
00:34 59 °F /  15 °C 51.8 °F /  11 °C 29.9in /  1011.9hPa NNE 3.1mph /  5km/h 7mph /  11.3km/h 77.3% 0in /  0.0mm
00:39 58.8 °F /  14.9 °C 52 °F /  11.1 °C 29.9in /  1011.9hPa NNE 3.5mph /  5.6km/h 7mph /  11.3km/h 78% 0in /  0.0mm
00:44 58.8 °F /  14.9 °C 52.2 °F /  11.2 °C 29.9in /  1011.9hPa NNE 4.3mph /  6.9km/h 6mph /  9.7km/h 78.5% 0in /  0.0mm
00:49 58.6 °F /  14.8 °C 52 °F /  11.1 °C 29.9in /  1011.9hPa NNE 3.4mph /  5.5km/h 5mph /  8km/h 78.2% 0in /  0.0mm
00:54 58.6 °F /  14.8 °C 51.8 °F /  11 °C 29.9in /  1011.8hPa ENE 1.8mph /  2.9km/h 5mph /  8km/h 78% 0in /  0.0mm
00:59 58.6 °F /  14.8 °C 51.8 °F /  11 °C 29.9in /  1011.8hPa ENE 1.6mph /  2.6km/h 3.5mph /  5.6km/h 78% 0in /  0.0mm
01:04 58.5 °F /  14.7 °C 51.6 °F /  10.9 °C 29.9in /  1011.8hPa ENE 1.4mph /  2.2km/h 3mph /  4.8km/h 78% 0in /  0.0mm
01:09 58.5 °F /  14.7 °C 51.6 °F /  10.9 °C 29.9in /  1011.8hPa ENE 0.9mph /  1.5km/h 3.5mph /  5.6km/h 78% 0in /  0.0mm
01:14 58.5 °F /  14.7 °C 51.4 °F /  10.8 °C 29.9in /  1011.8hPa Calm   3mph /  4.8km/h 77.2% 0in /  0.0mm
01:19 58.5 °F /  14.7 °C 51.3 °F /  10.7 °C 29.9in /  1011.8hPa Calm   1.8mph /  2.9km/h 77% 0in /  0.0mm
01:24 58.5 °F /  14.7 °C 51.6 °F /  10.9 °C 29.9in /  1011.8hPa Calm   2.3mph /  3.7km/h 78% 0in /  0.0mm
01:29 58.5 °F /  14.7 °C 51.6 °F /  10.9 °C 29.9in /  1011.8hPa Calm   2.3mph /  3.7km/h 78% 0in /  0.0mm
01:34 58.5 °F /  14.7 °C 51.6 °F /  10.9 °C 29.9in /  1011.8hPa Calm     78% 0in /  0.0mm
01:39 58.5 °F /  14.7 °C 51.6 °F /  10.9 °C 29.9in /  1011.7hPa Calm     78% 0in /  0.0mm
01:44 58.5 °F /  14.7 °C 51.6 °F /  10.9 °C 29.9in /  1011.7hPa Calm   3.5mph /  5.6km/h 78% 0in /  0.0mm
01:49 58.3 °F /  14.6 °C 51.4 °F /  10.8 °C 29.9in /  1011.7hPa ENE 0.5mph /  0.8km/h 3.5mph /  5.6km/h 78% 0in /  0.0mm
01:54 58.1 °F /  14.5 °C 51.6 °F /  10.9 °C 29.9in /  1011.6hPa ENE 1.4mph /  2.2km/h 3mph /  4.8km/h 79% 0in /  0.0mm
01:59 57.9 °F /  14.4 °C 51.4 °F /  10.8 °C 29.9in /  1011.6hPa ENE 0.7mph /  1.2km/h 3.6mph /  5.8km/h 79% 0in /  0.0mm
02:04 57.9 °F /  14.4 °C 51.4 °F /  10.8 °C 29.9in /  1011.6hPa Calm   4mph /  6.4km/h 79% 0in /  0.0mm
02:09 57.9 °F /  14.4 °C 51.4 °F /  10.8 °C 29.9in /  1011.5hPa Calm   3mph /  4.8km/h 79% 0in /  0.0mm
02:14 57.9 °F /  14.4 °C 51.4 °F /  10.8 °C 29.9in /  1011.5hPa Calm     79% 0in /  0.0mm
02:19 57.7 °F /  14.3 °C 51.3 °F /  10.7 °C 29.9in /  1011.5hPa Calm     79% 0in /  0.0mm
02:24 57.7 °F /  14.3 °C 51.3 °F /  10.7 °C 29.9in /  1011.4hPa Calm     79% 0in /  0.0mm
02:29 57.7 °F /  14.3 °C 51.3 °F /  10.7 °C 29.9in /  1011.4hPa Calm   3.6mph /  5.8km/h 79% 0in /  0.0mm
02:34 57.6 °F /  14.2 °C 51.1 °F /  10.6 °C 29.9in /  1011.4hPa Calm   4mph /  6.4km/h 79% 0in /  0.0mm
02:39 57.6 °F /  14.2 °C 51.1 °F /  10.6 °C 29.9in /  1011.4hPa Oeste 0.6mph /  1km/h 4.6mph /  7.4km/h 79% 0in /  0.0mm
02:44 57.7 °F /  14.3 °C 51.3 °F /  10.7 °C 29.9in /  1011.4hPa Oeste 2mph /  3.2km/h 5mph /  8km/h 79% 0in /  0.0mm
02:49 57.6 °F /  14.2 °C 51.1 °F /  10.6 °C 29.9in /  1011.4hPa Oeste 1.8mph /  2.9km/h 3.5mph /  5.6km/h 79% 0in /  0.0mm
02:54 57.6 °F /  14.2 °C 51.1 °F /  10.6 °C 29.9in /  1011.2hPa Oeste 1.4mph /  2.2km/h 3.1mph /  5km/h 79% 0in /  0.0mm
02:59 57.7 °F /  14.3 °C 51.3 °F /  10.7 °C 29.9in /  1011.2hPa Oeste 1.4mph /  2.2km/h 3mph /  4.8km/h 79% 0in /  0.0mm
03:04 57.7 °F /  14.3 °C 51.3 °F /  10.7 °C 29.9in /  1011.2hPa Oeste 1.4mph /  2.2km/h 1mph /  1.6km/h 79% 0in /  0.0mm
03:09 57.7 °F /  14.3 °C 51.3 °F /  10.7 °C 29.9in /  1011.0hPa Oeste 0.9mph /  1.5km/h 2mph /  3.2km/h 79% 0in /  0.0mm
03:14 57.9 °F /  14.4 °C 51.4 °F /  10.8 °C 29.9in /  1011.0hPa Calm   6.2mph /  10km/h 79% 0in /  0.0mm
03:19 57.7 °F /  14.3 °C 51.6 °F /  10.9 °C 29.9in /  1011.0hPa SO 1mph /  1.6km/h 6.9mph /  11.1km/h 79.7% 0in /  0.0mm
03:24 57.7 °F /  14.3 °C 51.6 °F /  10.9 °C 29.9in /  1010.9hPa SSO 3.1mph /  5km/h 7mph /  11.3km/h 80% 0in /  0.0mm
03:29 57.7 °F /  14.3 °C 51.6 °F /  10.9 °C 29.9in /  1010.9hPa SSO 3.4mph /  5.5km/h 7mph /  11.3km/h 80.1% 0in /  0.0mm
03:34 57.7 °F /  14.3 °C 51.8 °F /  11 °C 29.9in /  1010.9hPa SSO 4mph /  6.5km/h 6.2mph /  10km/h 81% 0in /  0.0mm
03:39 57.6 °F /  14.2 °C 52 °F /  11.1 °C 29.9in /  1010.8hPa SSO 4.1mph /  6.6km/h 6.9mph /  11.1km/h 81.7% 0in /  0.0mm
03:44 57.6 °F /  14.2 °C 52.2 °F /  11.2 °C 29.9in /  1010.8hPa SSO 4.3mph /  6.9km/h 8.1mph /  13km/h 82% 0in /  0.0mm
03:49 57.6 °F /  14.2 °C 52.2 °F /  11.2 °C 29.9in /  1010.8hPa SSO 4.4mph /  7.1km/h 8mph /  12.9km/h 82.3% 0in /  0.0mm
03:54 57.4 °F /  14.1 °C 52.3 °F /  11.3 °C 29.8in /  1010.7hPa SSO 4.7mph /  7.6km/h 7.4mph /  11.9km/h 83% 0in /  0.0mm
03:59 57.4 °F /  14.1 °C 52.3 °F /  11.3 °C 29.8in /  1010.7hPa SSO 4.7mph /  7.6km/h 8.1mph /  13km/h 83% 0in /  0.0mm
04:04 57.2 °F /  14 °C 52.2 °F /  11.2 °C 29.9in /  1010.8hPa SSO 4.7mph /  7.6km/h 8.1mph /  13km/h 83% 0in /  0.0mm
04:09 57 °F /  13.9 °C 52 °F /  11.1 °C 29.9in /  1010.8hPa SSO 4.7mph /  7.6km/h 8mph /  12.9km/h 83% 0in /  0.0mm
04:14 57 °F /  13.9 °C 52 °F /  11.1 °C 29.9in /  1010.8hPa SSO 4.7mph /  7.6km/h 6.9mph /  11.1km/h 83% 0in /  0.0mm
04:19 57 °F /  13.9 °C 52 °F /  11.1 °C 29.9in /  1010.8hPa SSO 4.5mph /  7.2km/h 7mph /  11.3km/h 83.1% 0in /  0.0mm
04:24 57 °F /  13.9 °C 52.2 °F /  11.2 °C 29.8in /  1010.7hPa SO 4mph /  6.5km/h 6mph /  9.7km/h 84% 0in /  0.0mm
04:29 57 °F /  13.9 °C 52.2 °F /  11.2 °C 29.8in /  1010.7hPa OSO 3.7mph /  5.9km/h 6.4mph /  10.3km/h 84% 0in /  0.0mm
04:34 56.8 °F /  13.8 °C 52.2 °F /  11.2 °C 29.9in /  1010.8hPa SO 2.9mph /  4.6km/h 7mph /  11.3km/h 84% 0in /  0.0mm
04:39 56.8 °F /  13.8 °C 52.2 °F /  11.2 °C 29.9in /  1010.8hPa SO 3.3mph /  5.3km/h 8.1mph /  13km/h 84% 0in /  0.0mm
04:44 56.8 °F /  13.8 °C 52.2 °F /  11.2 °C 29.9in /  1010.8hPa OSO 4mph /  6.5km/h 8mph /  12.9km/h 84% 0in /  0.0mm
04:49 56.8 °F /  13.8 °C 52.2 °F /  11.2 °C 29.9in /  1010.9hPa OSO 3.9mph /  6.2km/h 7mph /  11.3km/h 84% 0in /  0.0mm
04:54 56.8 °F /  13.8 °C 52.2 °F /  11.2 °C 29.9in /  1010.9hPa OSO 3.6mph /  5.8km/h 6.4mph /  10.3km/h 84% 0in /  0.0mm
04:59 56.8 °F /  13.8 °C 52.2 °F /  11.2 °C 29.9in /  1010.9hPa OSO 3mph /  4.9km/h 6mph /  9.7km/h 84% 0in /  0.0mm
05:04 56.8 °F /  13.8 °C 52.2 °F /  11.2 °C 29.9in /  1010.9hPa SO 2.4mph /  3.9km/h 5.2mph /  8.4km/h 84% 0in /  0.0mm
05:09 56.8 °F /  13.8 °C 52.2 °F /  11.2 °C 29.9in /  1010.8hPa SO 2.5mph /  4.1km/h 5.9mph /  9.5km/h 84% 0in /  0.0mm
05:14 56.8 °F /  13.8 °C 52.2 °F /  11.2 °C 29.9in /  1010.8hPa SO 2.9mph /  4.6km/h 6mph /  9.7km/h 84% 0in /  0.0mm
05:19 56.8 °F /  13.8 °C 52.2 °F /  11.2 °C 29.9in /  1010.9hPa SO 3mph /  4.8km/h 6.2mph /  10km/h 84% 0in /  0.0mm
05:24 56.8 °F /  13.8 °C 51.8 °F /  11 °C 29.9in /  1010.9hPa SO 3.1mph /  5km/h 9.2mph /  14.8km/h 83.3% 0in /  0.0mm
05:29 56.7 °F /  13.7 °C 51.6 °F /  10.9 °C 29.9in /  1010.9hPa SO 3.4mph /  5.5km/h 9mph /  14.5km/h 83% 0in /  0.0mm
05:34 56.7 °F /  13.7 °C 51.8 °F /  11 °C 29.9in /  1010.9hPa SSO 4mph /  6.5km/h 6.4mph /  10.3km/h 83.4% 0in /  0.0mm
05:39 56.7 °F /  13.7 °C 51.8 °F /  11 °C 29.9in /  1010.8hPa SSO 3.9mph /  6.2km/h 7mph /  11.3km/h 84% 0in /  0.0mm
05:44 56.7 °F /  13.7 °C 51.8 °F /  11 °C 29.9in /  1010.8hPa SSO 3.6mph /  5.8km/h 6.2mph /  10km/h 84% 0in /  0.0mm
05:49 56.5 °F /  13.6 °C 51.4 °F /  10.8 °C 29.9in /  1010.8hPa SSO 3.6mph /  5.8km/h 6mph /  9.7km/h 83.2% 0in /  0.0mm
05:54 56.5 °F /  13.6 °C 51.4 °F /  10.8 °C 29.9in /  1010.8hPa SO 3.6mph /  5.8km/h 6mph /  9.7km/h 83% 0in /  0.0mm
05:59 56.5 °F /  13.6 °C 51.4 °F /  10.8 °C 29.9in /  1010.8hPa SO 3.4mph /  5.4km/h 5.8mph /  9.3km/h 83% 0in /  0.0mm
06:04 56.5 °F /  13.6 °C 51.4 °F /  10.8 °C 29.9in /  1010.8hPa SO 3.1mph /  5km/h 6mph /  9.7km/h 83% 0in /  0.0mm
06:09 56.5 °F /  13.6 °C 51.4 °F /  10.8 °C 29.9in /  1010.8hPa SO 3.1mph /  5km/h 6mph /  9.7km/h 83% 0in /  0.0mm
06:14 56.5 °F /  13.6 °C 51.4 °F /  10.8 °C 29.9in /  1010.8hPa SO 3.1mph /  5km/h 6mph /  9.7km/h 83% 0in /  0.0mm
06:19 56.5 °F /  13.6 °C 51.4 °F /  10.8 °C 29.9in /  1010.8hPa OSO 3mph /  4.9km/h 6.2mph /  10km/h 83% 0in /  0.0mm
06:24 56.5 °F /  13.6 °C 51.3 °F /  10.7 °C 29.9in /  1010.8hPa OSO 2.9mph /  4.6km/h 6mph /  9.7km/h 83% 0in /  0.0mm
06:29 56.3 °F /  13.5 °C 51.4 °F /  10.8 °C 29.9in /  1010.8hPa OSO 3mph /  4.8km/h 6mph /  9.7km/h 83.8% 0in /  0.0mm
06:34 56.1 °F /  13.4 °C 51.3 °F /  10.7 °C 29.9in /  1011.0hPa Oeste 3.1mph /  5km/h 6mph /  9.7km/h 83.7% 0in /  0.0mm
06:39 56.1 °F /  13.4 °C 51.4 °F /  10.8 °C 29.9in /  1011.0hPa Oeste 3mph /  4.9km/h 5.2mph /  8.4km/h 84% 0in /  0.0mm
06:44 55.9 °F /  13.3 °C 51.3 °F /  10.7 °C 29.9in /  1011.0hPa Oeste 2.9mph /  4.6km/h 5mph /  8km/h 84% 0in /  0.0mm
06:49 55.9 °F /  13.3 °C 51.3 °F /  10.7 °C 29.9in /  1011.0hPa Oeste 2.5mph /  4.1km/h 4mph /  6.4km/h 84.3% 0in /  0.0mm
06:54 55.8 °F /  13.2 °C 51.3 °F /  10.7 °C 29.9in /  1011.0hPa Oeste 1.8mph /  2.9km/h 4mph /  6.4km/h 85% 0in /  0.0mm
06:59 55.6 °F /  13.1 °C 51.1 °F /  10.6 °C 29.9in /  1011.0hPa Oeste 1.9mph /  3km/h 4.6mph /  7.4km/h 85% 0in /  0.0mm
07:04 55.6 °F /  13.1 °C 51.4 °F /  10.8 °C 29.9in /  1011.2hPa ONO 2mph /  3.2km/h 5mph /  8km/h 86% 0in /  0.0mm
07:09 55.6 °F /  13.1 °C 51.4 °F /  10.8 °C 29.9in /  1011.2hPa Oeste 2.1mph /  3.4km/h 5mph /  8km/h 86% 0in /  0.0mm
07:14 55.4 °F /  13 °C 51.3 °F /  10.7 °C 29.9in /  1011.2hPa Oeste 2.4mph /  3.9km/h 5.2mph /  8.4km/h 86% 0in /  0.0mm
07:19 55.2 °F /  12.9 °C 51.4 °F /  10.8 °C 29.9in /  1011.2hPa Oeste 2.4mph /  3.9km/h 5mph /  8km/h 86.8% 0in /  0.0mm
07:24 55.2 °F /  12.9 °C 51.4 °F /  10.8 °C 29.9in /  1011.2hPa Oeste 2.4mph /  3.9km/h 5mph /  8km/h 87% 0in /  0.0mm
07:29 55.2 °F /  12.9 °C 51.4 °F /  10.8 °C 29.9in /  1011.2hPa OSO 2.2mph /  3.6km/h 4.7mph /  7.6km/h 87% 0in /  0.0mm
07:34 55.4 °F /  13 °C 51.6 °F /  10.9 °C 29.9in /  1011.5hPa OSO 2mph /  3.2km/h 5mph /  8km/h 87% 0in /  0.0mm
07:39 55.6 °F /  13.1 °C 51.6 °F /  10.9 °C 29.9in /  1011.5hPa OSO 1.9mph /  3.1km/h 5mph /  8km/h 87% 0in /  0.0mm
07:44 55.6 °F /  13.1 °C 51.8 °F /  11 °C 29.9in /  1011.5hPa OSO 1.8mph /  2.9km/h 1mph /  1.6km/h 87% 0in /  0.0mm
07:49 55.8 °F /  13.2 °C 51.6 °F /  10.9 °C 29.9in /  1011.6hPa OSO 1.2mph /  2km/h 3.6mph /  5.8km/h 86.3% 0in /  0.0mm
07:54 55.8 °F /  13.2 °C 51.6 °F /  10.9 °C 29.9in /  1011.6hPa Calm   4mph /  6.4km/h 86% 0in /  0.0mm
07:59 55.9 °F /  13.3 °C 52 °F /  11.1 °C 29.9in /  1011.6hPa OSO 0.6mph /  1km/h 4.6mph /  7.4km/h 86% 0in /  0.0mm
08:04 56.1 °F /  13.4 °C 52 °F /  11.1 °C 29.9in /  1011.8hPa OSO 1.4mph /  2.2km/h 5mph /  8km/h 85.6% 0in /  0.0mm
08:09 56.5 °F /  13.6 °C 52 °F /  11.1 °C 29.9in /  1011.8hPa OSO 1.5mph /  2.4km/h 3.6mph /  5.8km/h 85% 0in /  0.0mm
08:14 56.7 °F /  13.7 °C 52 °F /  11.1 °C 29.9in /  1011.8hPa OSO 1.8mph /  2.9km/h 4.6mph /  7.4km/h 84.7% 0in /  0.0mm
08:19 56.8 °F /  13.8 °C 52 °F /  11.1 °C 29.9in /  1011.9hPa OSO 2mph /  3.2km/h 5mph /  8km/h 84% 0in /  0.0mm
08:24 57 °F /  13.9 °C 52.2 °F /  11.2 °C 29.9in /  1011.9hPa OSO 2.4mph /  3.9km/h 4mph /  6.4km/h 83.5% 0in /  0.0mm
08:29 57.6 °F /  14.2 °C 52.2 °F /  11.2 °C 29.9in /  1011.9hPa OSO 2.3mph /  3.7km/h 4.6mph /  7.4km/h 82.5% 0in /  0.0mm
08:34 57.7 °F /  14.3 °C 52 °F /  11.1 °C 29.9in /  1012.0hPa OSO 2mph /  3.2km/h 5.2mph /  8.4km/h 81.5% 0in /  0.0mm
08:39 57.9 °F /  14.4 °C 52.2 °F /  11.2 °C 29.9in /  1012.0hPa OSO 2.3mph /  3.7km/h 5.2mph /  8.4km/h 81% 0in /  0.0mm
08:44 58.3 °F /  14.6 °C 52.3 °F /  11.3 °C 29.9in /  1012.0hPa SO 2.9mph /  4.6km/h 5.2mph /  8.4km/h 80.5% 0in /  0.0mm
08:49 58.6 °F /  14.8 °C 52.2 °F /  11.2 °C 29.9in /  1012.2hPa SO 2.7mph /  4.4km/h 5mph /  8km/h 79.3% 0in /  0.0mm
08:54 58.8 °F /  14.9 °C 52 °F /  11.1 °C 29.9in /  1012.2hPa OSO 2.4mph /  3.9km/h 7.6mph /  12.2km/h 77.7% 0in /  0.0mm
08:59 59.2 °F /  15.1 °C 51.8 °F /  11 °C 29.9in /  1012.2hPa OSO 3.1mph /  5km/h 8.1mph /  13km/h 76.7% 0in /  0.0mm
09:04 59.2 °F /  15.1 °C 51.8 °F /  11 °C 29.9in /  1012.2hPa OSO 4mph /  6.5km/h 8mph /  12.9km/h 76.6% 0in /  0.0mm
09:09 59.4 °F /  15.2 °C 51.4 °F /  10.8 °C 29.9in /  1012.2hPa OSO 3.9mph /  6.2km/h 8.1mph /  13km/h 74.9% 0in /  0.0mm
09:14 59.5 °F /  15.3 °C 50.7 °F /  10.4 °C 29.9in /  1012.2hPa OSO 3.6mph /  5.8km/h 9.7mph /  15.6km/h 73% 0in /  0.0mm
09:19 59.5 °F /  15.3 °C 50.5 °F /  10.3 °C 29.9in /  1012.3hPa OSO 4.3mph /  7km/h 10mph /  16.1km/h 72.2% 0in /  0.0mm
09:24 59.5 °F /  15.3 °C 50.7 °F /  10.4 °C 29.9in /  1012.3hPa Oeste 5.9mph /  9.5km/h 10mph /  16.1km/h 72.5% 0in /  0.0mm
09:29 59.7 °F /  15.4 °C 50.7 °F /  10.4 °C 29.9in /  1012.3hPa OSO 5.7mph /  9.2km/h 10.4mph /  16.7km/h 71.9% 0in /  0.0mm
09:34 59.5 °F /  15.3 °C 50.5 °F /  10.3 °C 29.9in /  1012.4hPa OSO 5.2mph /  8.4km/h 10mph /  16.1km/h 71.8% 0in /  0.0mm
09:39 59.7 °F /  15.4 °C 50.5 °F /  10.3 °C 29.9in /  1012.4hPa OSO 5mph /  8.1km/h 9mph /  14.5km/h 71.4% 0in /  0.0mm
09:44 59.9 °F /  15.5 °C 49.8 °F /  9.9 °C 29.9in /  1012.4hPa OSO 4.7mph /  7.6km/h 8.1mph /  13km/h 69% 0in /  0.0mm
09:49 60.3 °F /  15.7 °C 49.3 °F /  9.6 °C 29.9in /  1012.5hPa Oeste 4.7mph /  7.6km/h 9.7mph /  15.6km/h 67.2% 0in /  0.0mm
09:54 60.4 °F /  15.8 °C 48.7 °F /  9.3 °C 29.9in /  1012.5hPa Oeste 4.7mph /  7.6km/h 10mph /  16.1km/h 65.2% 0in /  0.0mm
09:59 60.6 °F /  15.9 °C 48.4 °F /  9.1 °C 29.9in /  1012.5hPa OSO 4.7mph /  7.6km/h 10.4mph /  16.7km/h 63.9% 0in /  0.0mm
10:04 60.8 °F /  16 °C 48 °F /  8.9 °C 29.9in /  1012.5hPa Oeste 4.7mph /  7.6km/h 10mph /  16.1km/h 63% 0in /  0.0mm
10:09 61.2 °F /  16.2 °C 47.7 °F /  8.7 °C 29.9in /  1012.4hPa OSO 4.7mph /  7.6km/h 11.5mph /  18.5km/h 61.1% 0in /  0.0mm
10:14 61.3 °F /  16.3 °C 47.3 °F /  8.5 °C 29.9in /  1012.4hPa OSO 4.7mph /  7.6km/h 12mph /  19.3km/h 60.1% 0in /  0.0mm
10:19 61.9 °F /  16.6 °C 47.5 °F /  8.6 °C 29.9in /  1012.4hPa Oeste 4.2mph /  6.8km/h 7mph /  11.3km/h 59.1% 0in /  0.0mm
10:24 62.2 °F /  16.8 °C 47.7 °F /  8.7 °C 29.9in /  1012.4hPa Oeste 3.1mph /  5km/h 7.4mph /  11.9km/h 59% 0in /  0.0mm
10:29 62.4 °F /  16.9 °C 47.8 °F /  8.8 °C 29.9in /  1012.4hPa ONO 3.4mph /  5.5km/h 7mph /  11.3km/h 58.9% 0in /  0.0mm
10:34 62.4 °F /  16.9 °C 47.1 °F /  8.4 °C 29.9in /  1012.4hPa ONO 4mph /  6.5km/h 8.5mph /  13.7km/h 57.3% 0in /  0.0mm
10:39 62.4 °F /  16.9 °C 46.6 °F /  8.1 °C 29.9in /  1012.4hPa Oeste 4.2mph /  6.8km/h 9.2mph /  14.8km/h 56% 0in /  0.0mm
10:44 62.8 °F /  17.1 °C 46 °F /  7.8 °C 29.9in /  1012.4hPa Oeste 4.7mph /  7.6km/h 9mph /  14.5km/h 54.5% 0in /  0.0mm
10:49 63 °F /  17.2 °C 45.7 °F /  7.6 °C 29.9in /  1012.4hPa ONO 4.5mph /  7.2km/h 8.1mph /  13km/h 53.2% 0in /  0.0mm
10:54 63.1 °F /  17.3 °C 46.6 °F /  8.1 °C 29.9in /  1012.4hPa ONO 4mph /  6.5km/h 8mph /  12.9km/h 54.6% 0in /  0.0mm
10:59 63.7 °F /  17.6 °C 46.9 °F /  8.3 °C 29.9in /  1012.4hPa NO 3.6mph /  5.8km/h 9.2mph /  14.8km/h 54.5% 0in /  0.0mm
11:04 63.9 °F /  17.7 °C 47.3 °F /  8.5 °C 29.9in /  1012.4hPa NO 3.1mph /  5km/h 9mph /  14.5km/h 54.7% 0in /  0.0mm
11:09 64.4 °F /  18 °C 47.5 °F /  8.6 °C 29.9in /  1012.4hPa Oeste 2.9mph /  4.6km/h 8mph /  12.9km/h 54.4% 0in /  0.0mm
11:14 65.1 °F /  18.4 °C 47.3 °F /  8.5 °C 29.9in /  1012.4hPa SO 2.4mph /  3.9km/h 9.2mph /  14.8km/h 52.7% 0in /  0.0mm
11:19 65.3 °F /  18.5 °C 47.1 °F /  8.4 °C 29.9in /  1012.4hPa SSO 2.9mph /  4.7km/h 9mph /  14.5km/h 51.9% 0in /  0.0mm
11:24 64.9 °F /  18.3 °C 46.4 °F /  8 °C 29.9in /  1012.4hPa Sur 4mph /  6.5km/h 9mph /  14.5km/h 51.1% 0in /  0.0mm
11:29 64.9 °F /  18.3 °C 46.4 °F /  8 °C 29.9in /  1012.4hPa SE 4.2mph /  6.8km/h 8mph /  12.9km/h 51% 0in /  0.0mm
11:34 65.5 °F /  18.6 °C 45.3 °F /  7.4 °C 29.9in /  1012.4hPa Oeste 4.7mph /  7.6km/h 7.4mph /  11.9km/h 48.2% 0in /  0.0mm
11:39 65.7 °F /  18.7 °C 44.4 °F /  6.9 °C 29.9in /  1012.4hPa Oeste 4.3mph /  7km/h 9.2mph /  14.8km/h 46.3% 0in /  0.0mm
11:44 65.7 °F /  18.7 °C 43.7 °F /  6.5 °C 29.9in /  1012.4hPa Oeste 3.6mph /  5.8km/h 10.7mph /  17.2km/h 45% 0in /  0.0mm
11:49 65.8 °F /  18.8 °C 43.9 °F /  6.6 °C 29.9in /  1012.4hPa Oeste 4.3mph /  7km/h 11mph /  17.7km/h 45% 0in /  0.0mm
11:54 66 °F /  18.9 °C 43.9 °F /  6.6 °C 29.9in /  1012.4hPa Oeste 5.9mph /  9.5km/h 11.8mph /  19km/h 44.5% 0in /  0.0mm
11:59 66 °F /  18.9 °C 43.5 °F /  6.4 °C 29.9in /  1012.4hPa OSO 5.9mph /  9.5km/h 12mph /  19.3km/h 43.9% 0in /  0.0mm
12:04 66.4 °F /  19.1 °C 42.4 °F /  5.8 °C 29.9in /  1012.4hPa SSO 5.9mph /  9.5km/h 9mph /  14.5km/h 42% 0in /  0.0mm
12:09 66.6 °F /  19.2 °C 42.8 °F /  6 °C 29.9in /  1012.4hPa SSE 5.3mph /  8.5km/h 9mph /  14.5km/h 42% 0in /  0.0mm
12:14 67.1 °F /  19.5 °C 43.5 °F /  6.4 °C 29.9in /  1012.4hPa NE 4mph /  6.5km/h 6mph /  9.7km/h 42.4% 0in /  0.0mm
12:19 68 °F /  20 °C 43.7 °F /  6.5 °C 29.9in /  1012.4hPa North 3.4mph /  5.4km/h 5.2mph /  8.4km/h 41.5% 0in /  0.0mm
12:24 68.5 °F /  20.3 °C 43.9 °F /  6.6 °C 29.9in /  1012.3hPa ESE 2mph /  3.2km/h 5.2mph /  8.4km/h 40.9% 0in /  0.0mm
12:29 68.9 °F /  20.5 °C 43 °F /  6.1 °C 29.9in /  1012.3hPa Sur 2.3mph /  3.7km/h 6.2mph /  10km/h 39.2% 0in /  0.0mm
12:34 68.7 °F /  20.4 °C 42.8 °F /  6 °C 29.9in /  1012.3hPa Oeste 2.9mph /  4.7km/h 10mph /  16.1km/h 39% 0in /  0.0mm
12:39 68.5 °F /  20.3 °C 42.6 °F /  5.9 °C 29.9in /  1012.3hPa OSO 3.4mph /  5.4km/h 10mph /  16.1km/h 39% 0in /  0.0mm
12:44 68.4 °F /  20.2 °C 42.4 °F /  5.8 °C 29.9in /  1012.3hPa Oeste 4.3mph /  6.9km/h 9.2mph /  14.8km/h 39% 0in /  0.0mm
12:49 68.4 °F /  20.2 °C 42.4 °F /  5.8 °C 29.9in /  1012.3hPa SO 4.6mph /  7.4km/h 10.4mph /  16.7km/h 39% 0in /  0.0mm
12:54 68.4 °F /  20.2 °C 42.3 °F /  5.7 °C 29.9in /  1012.2hPa SSE 5.2mph /  8.4km/h 10mph /  16.1km/h 38.8% 0in /  0.0mm
12:59 68.4 °F /  20.2 °C 41.7 °F /  5.4 °C 29.9in /  1012.2hPa Oeste 4.7mph /  7.5km/h 8.5mph /  13.7km/h 38% 0in /  0.0mm
13:04 68.5 °F /  20.3 °C 42.4 °F /  5.8 °C 29.9in /  1012.2hPa SSO 4mph /  6.5km/h 15mph /  24.1km/h 38.9% 0in /  0.0mm
13:09 68.7 °F /  20.4 °C 42.4 °F /  5.8 °C 29.9in /  1012.0hPa SSO 4.7mph /  7.5km/h 15mph /  24.1km/h 38.4% 0in /  0.0mm
13:14 68.5 °F /  20.3 °C 42.3 °F /  5.7 °C 29.9in /  1012.0hPa SO 5.9mph /  9.5km/h 11mph /  17.7km/h 38.4% 0in /  0.0mm
13:19 68.7 °F /  20.4 °C 42.4 °F /  5.8 °C 29.9in /  1012.0hPa OSO 5.3mph /  8.5km/h 10mph /  16.1km/h 38.4% 0in /  0.0mm
13:24 68.9 °F /  20.5 °C 42.1 °F /  5.6 °C 29.9in /  1011.8hPa Oeste 4mph /  6.5km/h 10.4mph /  16.7km/h 37.9% 0in /  0.0mm
13:29 69.3 °F /  20.7 °C 41.2 °F /  5.1 °C 29.9in /  1011.8hPa OSO 4.2mph /  6.8km/h 11.5mph /  18.5km/h 36.1% 0in /  0.0mm
13:34 69.8 °F /  21 °C 40.5 °F /  4.7 °C 29.9in /  1011.8hPa SO 4.7mph /  7.6km/h 12mph /  19.3km/h 34.5% 0in /  0.0mm
13:39 70.3 °F /  21.3 °C 39.7 °F /  4.3 °C 29.9in /  1011.6hPa SSO 4.5mph /  7.2km/h 8.5mph /  13.7km/h 32.8% 0in /  0.0mm
13:44 70.3 °F /  21.3 °C 39.7 °F /  4.3 °C 29.9in /  1011.6hPa OSO 4mph /  6.5km/h 10mph /  16.1km/h 32.8% 0in /  0.0mm
13:49 70.3 °F /  21.3 °C 40.6 °F /  4.8 °C 29.9in /  1011.6hPa SO 4.2mph /  6.8km/h 13mph /  20.9km/h 34% 0in /  0.0mm
13:54 70.2 °F /  21.2 °C 41 °F /  5 °C 29.9in /  1011.5hPa Este 4.7mph /  7.6km/h 13mph /  20.9km/h 34.8% 0in /  0.0mm
13:59 70.2 °F /  21.2 °C 38.8 °F /  3.8 °C 29.9in /  1011.5hPa SO 5.5mph /  8.8km/h 13.8mph /  22.2km/h 31.9% 0in /  0.0mm
14:04 70.5 °F /  21.4 °C 38.5 °F /  3.6 °C 29.9in /  1011.5hPa Oeste 6.4mph /  10.3km/h 14mph /  22.5km/h 31% 0in /  0.0mm
14:09 71.1 °F /  21.7 °C 38.8 °F /  3.8 °C 29.9in /  1011.3hPa NO 5.7mph /  9.2km/h 10mph /  16.1km/h 31% 0in /  0.0mm
14:14 71.4 °F /  21.9 °C 39.2 °F /  4 °C 29.9in /  1011.3hPa Oeste 4.3mph /  6.9km/h 10.4mph /  16.7km/h 31% 0in /  0.0mm
14:19 71.4 °F /  21.9 °C 39.2 °F /  4 °C 29.9in /  1011.3hPa Oeste 4.8mph /  7.8km/h 10mph /  16.1km/h 31% 0in /  0.0mm
14:24 71.2 °F /  21.8 °C 38.8 °F /  3.8 °C 29.9in /  1011.0hPa OSO 5.9mph /  9.5km/h 15.2mph /  24.5km/h 30.7% 0in /  0.0mm
14:29 71.6 °F /  22 °C 38.8 °F /  3.8 °C 29.9in /  1011.0hPa Oeste 6mph /  9.7km/h 19.2mph /  30.9km/h 30.5% 0in /  0.0mm
14:34 72 °F /  22.2 °C 37.2 °F /  2.9 °C 29.9in /  1011.0hPa Oeste 6.2mph /  10km/h 19mph /  30.6km/h 28.2% 0in /  0.0mm
14:39 72 °F /  22.2 °C 35.8 °F /  2.1 °C 29.9in /  1011.0hPa ONO 6.4mph /  10.3km/h 13mph /  20.9km/h 26.6% 0in /  0.0mm
14:44 72.3 °F /  22.4 °C 35.8 °F /  2.1 °C 29.9in /  1011.0hPa NO 6.9mph /  11.1km/h 13mph /  20.9km/h 26.2% 0in /  0.0mm
14:49 73 °F /  22.8 °C 36.1 °F /  2.3 °C 29.9in /  1011.0hPa Oeste 5.6mph /  9km/h 6mph /  9.7km/h 26% 0in /  0.0mm
14:54 73.2 °F /  22.9 °C 36.1 °F /  2.3 °C 29.9in /  1010.8hPa North 3.1mph /  5km/h 8.5mph /  13.7km/h 26% 0in /  0.0mm
14:59 73.8 °F /  23.2 °C 36.9 °F /  2.7 °C 29.9in /  1010.8hPa NNO 3.5mph /  5.6km/h 12.3mph /  19.8km/h 26.2% 0in /  0.0mm
15:04 73.8 °F /  23.2 °C 37.8 °F /  3.2 °C 29.9in /  1010.8hPa Oeste 4mph /  6.5km/h 16.1mph /  25.9km/h 27.1% 0in /  0.0mm
15:09 73 °F /  22.8 °C 37.6 °F /  3.1 °C 29.8in /  1010.7hPa Oeste 5.2mph /  8.3km/h 16.1mph /  25.9km/h 27.6% 0in /  0.0mm
15:14 73 °F /  22.8 °C 37.9 °F /  3.3 °C 29.8in /  1010.7hPa SO 7.6mph /  12.2km/h 10.4mph /  16.7km/h 28% 0in /  0.0mm
15:19 73.6 °F /  23.1 °C 38.5 °F /  3.6 °C 29.8in /  1010.7hPa SO 6.8mph /  11km/h 10.4mph /  16.7km/h 28.2% 0in /  0.0mm
15:24 74.1 °F /  23.4 °C 38.5 °F /  3.6 °C 29.8in /  1010.5hPa OSO 5.2mph /  8.4km/h 12.3mph /  19.8km/h 27.5% 0in /  0.0mm
15:29 73.9 °F /  23.3 °C 38.3 °F /  3.5 °C 29.8in /  1010.5hPa SO 5.4mph /  8.7km/h 12mph /  19.3km/h 27.5% 0in /  0.0mm
15:34 73.8 °F /  23.2 °C 38.3 °F /  3.5 °C 29.8in /  1010.5hPa Sur 5.9mph /  9.5km/h 10mph /  16.1km/h 27.8% 0in /  0.0mm
15:39 73.9 °F /  23.3 °C 38.8 °F /  3.8 °C 29.8in /  1010.3hPa Este 5.3mph /  8.5km/h 9mph /  14.5km/h 28% 0in /  0.0mm
15:44 74.5 °F /  23.6 °C 39.2 °F /  4 °C 29.8in /  1010.3hPa NNE 4mph /  6.5km/h 8mph /  12.9km/h 27.9% 0in /  0.0mm
15:49 74.8 °F /  23.8 °C 38.7 °F /  3.7 °C 29.8in /  1010.3hPa ONO 3.7mph /  6km/h 8.1mph /  13km/h 27% 0in /  0.0mm
15:54 74.8 °F /  23.8 °C 38.7 °F /  3.7 °C 29.8in /  1010.1hPa ONO 3.1mph /  5km/h 8.1mph /  13km/h 27% 0in /  0.0mm
15:59 74.8 °F /  23.8 °C 38.3 °F /  3.5 °C 29.8in /  1010.1hPa NO 4mph /  6.4km/h 12.7mph /  20.4km/h 26.7% 0in /  0.0mm
16:04 75 °F /  23.9 °C 37.8 °F /  3.2 °C 29.8in /  1010.1hPa NO 5.2mph /  8.4km/h 13mph /  20.9km/h 26% 0in /  0.0mm
16:09 75.6 °F /  24.2 °C 38.1 °F /  3.4 °C 29.8in /  1010.0hPa ONO 4.9mph /  7.9km/h 12mph /  19.3km/h 26% 0in /  0.0mm
16:14 75.7 °F /  24.3 °C 38.7 °F /  3.7 °C 29.8in /  1010.0hPa SO 4.3mph /  6.9km/h 9.2mph /  14.8km/h 26.3% 0in /  0.0mm
16:19 75.9 °F /  24.4 °C 46.6 °F /  8.1 °C 29.8in /  1010.0hPa SE 4.3mph /  6.9km/h 9mph /  14.5km/h 35.4% 0in /  0.0mm
16:24 75.6 °F /  24.2 °C 42.4 °F /  5.8 °C 29.8in /  1009.7hPa SO 4.3mph /  6.9km/h 13mph /  20.9km/h 30.9% 0in /  0.0mm
16:29 75 °F /  23.9 °C 47.7 °F /  8.7 °C 29.8in /  1009.7hPa SSE 5mph /  8km/h 15mph /  24.1km/h 38% 0in /  0.0mm
16:34 74.3 °F /  23.5 °C 47.7 °F /  8.7 °C 29.8in /  1009.7hPa SO 6.4mph /  10.3km/h 19mph /  30.6km/h 39% 0in /  0.0mm
16:39 73.9 °F /  23.3 °C 47.3 °F /  8.5 °C 29.8in /  1009.4hPa Sur 7.5mph /  12.1km/h 20.8mph /  33.5km/h 39% 0in /  0.0mm
16:44 73.4 °F /  23 °C 47.8 °F /  8.8 °C 29.8in /  1009.4hPa Sur 10mph /  16.1km/h 23mph /  37km/h 40.5% 0in /  0.0mm
16:49 73.6 °F /  23.1 °C 48.9 °F /  9.4 °C 29.8in /  1009.4hPa SSE 10.6mph /  17km/h 23mph /  37km/h 41.7% 0in /  0.0mm
16:54 73.6 °F /  23.1 °C 50 °F /  10 °C 29.8in /  1009.4hPa SSE 11.8mph /  19km/h 21mph /  33.8km/h 43.3% 0in /  0.0mm
16:59 73.2 °F /  22.9 °C 49.5 °F /  9.7 °C 29.8in /  1009.4hPa SE 11.6mph /  18.6km/h 19mph /  30.6km/h 43% 0in /  0.0mm
17:04 73.6 °F /  23.1 °C 50 °F /  10 °C 29.8in /  1009.4hPa SSE 11.2mph /  18km/h 17mph /  27.4km/h 43.6% 0in /  0.0mm
17:09 73.6 °F /  23.1 °C 50.4 °F /  10.2 °C 29.8in /  1009.4hPa SE 10.8mph /  17.4km/h 18.4mph /  29.6km/h 44.1% 0in /  0.0mm
17:14 73.4 °F /  23 °C 50.2 °F /  10.1 °C 29.8in /  1009.4hPa SSE 10mph /  16.1km/h 19mph /  30.6km/h 44.1% 0in /  0.0mm
17:19 73 °F /  22.8 °C 50.2 °F /  10.1 °C 29.8in /  1009.5hPa SSE 10.7mph /  17.3km/h 19.2mph /  30.9km/h 44.6% 0in /  0.0mm
17:24 73 °F /  22.8 °C 50.9 °F /  10.5 °C 29.8in /  1009.5hPa SE 12.3mph /  19.8km/h 21.9mph /  35.2km/h 45.8% 0in /  0.0mm
17:29 72.7 °F /  22.6 °C 51.1 °F /  10.6 °C 29.8in /  1009.5hPa SE 12mph /  19.3km/h 23.5mph /  37.8km/h 46.7% 0in /  0.0mm
17:34 72.1 °F /  22.3 °C 51.4 °F /  10.8 °C 29.8in /  1009.6hPa SE 11.4mph /  18.4km/h 23mph /  37km/h 48% 0in /  0.0mm
17:39 71.8 °F /  22.1 °C 51.6 °F /  10.9 °C 29.8in /  1009.6hPa SE 11.7mph /  18.9km/h 22mph /  35.4km/h 49% 0in /  0.0mm
17:44 71.8 °F /  22.1 °C 51.6 °F /  10.9 °C 29.8in /  1009.6hPa SE 12.5mph /  20.1km/h 22.3mph /  35.9km/h 49% 0in /  0.0mm
17:49 71.6 °F /  22 °C 51.4 °F /  10.8 °C 29.8in /  1009.6hPa SE 12.5mph /  20.1km/h 22mph /  35.4km/h 49% 0in /  0.0mm
17:54 71.6 °F /  22 °C 51.6 °F /  10.9 °C 29.8in /  1009.6hPa SSE 12.5mph /  20.1km/h 22mph /  35.4km/h 49.6% 0in /  0.0mm
17:59 71.6 °F /  22 °C 51.8 °F /  11 °C 29.8in /  1009.6hPa SSE 12.4mph /  20km/h 22mph /  35.4km/h 49.6% 0in /  0.0mm
18:04 72 °F /  22.2 °C 52 °F /  11.1 °C 29.8in /  1009.7hPa SE 12.3mph /  19.8km/h 19.6mph /  31.5km/h 49.2% 0in /  0.0mm
18:09 72.1 °F /  22.3 °C 52.2 °F /  11.2 °C 29.8in /  1009.7hPa SSE 11.9mph /  19.2km/h 22.5mph /  36.2km/h 49.6% 0in /  0.0mm
18:14 71.8 °F /  22.1 °C 52 °F /  11.1 °C 29.8in /  1009.7hPa SSE 11.2mph /  18km/h 23mph /  37km/h 49.6% 0in /  0.0mm
18:19 71.8 °F /  22.1 °C 52.2 °F /  11.2 °C 29.8in /  1009.7hPa SSE 11.6mph /  18.6km/h 21mph /  33.8km/h 50% 0in /  0.0mm
18:24 71.8 °F /  22.1 °C 52.3 °F /  11.3 °C 29.8in /  1009.7hPa SSE 12.3mph /  19.8km/h 21mph /  33.8km/h 50.4% 0in /  0.0mm
18:29 71.4 °F /  21.9 °C 52.2 °F /  11.2 °C 29.8in /  1009.7hPa SSE 12.4mph /  19.9km/h 21.9mph /  35.2km/h 50.7% 0in /  0.0mm
18:34 71.2 °F /  21.8 °C 52.2 °F /  11.2 °C 29.8in /  1009.8hPa SSE 12.5mph /  20.1km/h 22mph /  35.4km/h 51% 0in /  0.0mm
18:39 70.7 °F /  21.5 °C 52.7 °F /  11.5 °C 29.8in /  1009.8hPa Sur 12.7mph /  20.4km/h 20.7mph /  33.3km/h 52.9% 0in /  0.0mm
18:44 70.7 °F /  21.5 °C 53.1 °F /  11.7 °C 29.8in /  1009.8hPa SE 13mph /  20.9km/h 21mph /  33.8km/h 53.5% 0in /  0.0mm
18:49 70.9 °F /  21.6 °C 53.1 °F /  11.7 °C 29.8in /  1009.8hPa SE 12.4mph /  20km/h 21.3mph /  34.3km/h 53.5% 0in /  0.0mm
18:54 70.7 °F /  21.5 °C 53.2 °F /  11.8 °C 29.8in /  1009.7hPa SE 11.2mph /  18km/h 21mph /  33.8km/h 54.3% 0in /  0.0mm
18:59 70.5 °F /  21.4 °C 53.6 °F /  12 °C 29.8in /  1009.7hPa SE 11mph /  17.7km/h 20mph /  32.2km/h 55% 0in /  0.0mm
19:04 70.7 °F /  21.5 °C 53.8 °F /  12.1 °C 29.8in /  1009.8hPa SSE 10.7mph /  17.2km/h 16.3mph /  26.2km/h 55% 0in /  0.0mm
19:09 70.7 °F /  21.5 °C 53.8 °F /  12.1 °C 29.8in /  1009.8hPa SSE 10.1mph /  16.2km/h 16mph /  25.7km/h 55.2% 0in /  0.0mm
19:14 70.5 °F /  21.4 °C 54 °F /  12.2 °C 29.8in /  1009.8hPa SSE 8.7mph /  14km/h 17.5mph /  28.2km/h 55.8% 0in /  0.0mm
19:19 70.2 °F /  21.2 °C 54.1 °F /  12.3 °C 29.8in /  1009.9hPa SSE 9.1mph /  14.7km/h 18.4mph /  29.6km/h 56.6% 0in /  0.0mm
19:24 69.6 °F /  20.9 °C 54.1 °F /  12.3 °C 29.8in /  1009.9hPa SSE 10.2mph /  16.4km/h 18.4mph /  29.6km/h 57.9% 0in /  0.0mm
19:29 69.3 °F /  20.7 °C 54.3 °F /  12.4 °C 29.8in /  1009.9hPa SSE 10.5mph /  16.9km/h 18.4mph /  29.6km/h 58.8% 0in /  0.0mm
19:34 69.3 °F /  20.7 °C 54.1 °F /  12.3 °C 29.8in /  1009.9hPa SE 11.2mph /  18km/h 18mph /  29km/h 58.6% 0in /  0.0mm
19:39 69.3 °F /  20.7 °C 54.1 °F /  12.3 °C 29.8in /  1009.9hPa SSE 10.9mph /  17.5km/h 17.3mph /  27.8km/h 58.7% 0in /  0.0mm
19:44 69.4 °F /  20.8 °C 54.5 °F /  12.5 °C 29.8in /  1009.9hPa SSE 10.2mph /  16.4km/h 17mph /  27.4km/h 59% 0in /  0.0mm
19:49 69.1 °F /  20.6 °C 54.3 °F /  12.4 °C 29.8in /  1010.1hPa SSE 9.9mph /  15.9km/h 16.1mph /  25.9km/h 59.2% 0in /  0.0mm
19:54 68.7 °F /  20.4 °C 54.3 °F /  12.4 °C 29.8in /  1010.1hPa SSE 9.2mph /  14.8km/h 15mph /  24.1km/h 60% 0in /  0.0mm
19:59 68.5 °F /  20.3 °C 54.3 °F /  12.4 °C 29.8in /  1010.1hPa SSE 8.9mph /  14.4km/h 14mph /  22.5km/h 60.3% 0in /  0.0mm
20:04 68.5 °F /  20.3 °C 54.3 °F /  12.4 °C 29.8in /  1010.2hPa SSE 8.7mph /  14km/h 16.1mph /  25.9km/h 60.3% 0in /  0.0mm
20:09 68.5 °F /  20.3 °C 54.3 °F /  12.4 °C 29.8in /  1010.2hPa SSE 8.5mph /  13.7km/h 16mph /  25.7km/h 60.7% 0in /  0.0mm
20:14 68.4 °F /  20.2 °C 54.5 °F /  12.5 °C 29.8in /  1010.2hPa SSE 8.1mph /  13km/h 14mph /  22.5km/h 61% 0in /  0.0mm
20:19 68.4 °F /  20.2 °C 54.5 °F /  12.5 °C 29.8in /  1010.3hPa SSE 7.9mph /  12.7km/h 15mph /  24.1km/h 61% 0in /  0.0mm
20:24 68.2 °F /  20.1 °C 54.5 °F /  12.5 °C 29.8in /  1010.3hPa SSE 7.4mph /  11.9km/h 15mph /  24.1km/h 61.8% 0in /  0.0mm
20:29 67.8 °F /  19.9 °C 54.3 °F /  12.4 °C 29.8in /  1010.3hPa SSE 7.2mph /  11.6km/h 12mph /  19.3km/h 62% 0in /  0.0mm
20:34 67.6 °F /  19.8 °C 54.5 °F /  12.5 °C 29.8in /  1010.5hPa SSE 6.9mph /  11.1km/h 14.5mph /  23.3km/h 62.8% 0in /  0.0mm
20:39 67.5 °F /  19.7 °C 54.5 °F /  12.5 °C 29.8in /  1010.5hPa SSE 7.3mph /  11.7km/h 15mph /  24.1km/h 63.4% 0in /  0.0mm
20:44 67.1 °F /  19.5 °C 54.5 °F /  12.5 °C 29.8in /  1010.5hPa SSE 8.1mph /  13km/h 15mph /  24.1km/h 64% 0in /  0.0mm
20:49 66.9 °F /  19.4 °C 54.7 °F /  12.6 °C 29.8in /  1010.6hPa SSE 7.6mph /  12.2km/h 12mph /  19.3km/h 64.8% 0in /  0.0mm
20:54 66.9 °F /  19.4 °C 54.7 °F /  12.6 °C 29.8in /  1010.6hPa SE 6.4mph /  10.3km/h 9mph /  14.5km/h 65% 0in /  0.0mm
20:59 66.9 °F /  19.4 °C 54.9 °F /  12.7 °C 29.8in /  1010.6hPa SE 5.5mph /  8.8km/h 9.2mph /  14.8km/h 65% 0in /  0.0mm
21:04 66.7 °F /  19.3 °C 54.7 °F /  12.6 °C 29.9in /  1010.8hPa ESE 4.3mph /  6.9km/h 9mph /  14.5km/h 65% 0in /  0.0mm
21:09 66.6 °F /  19.2 °C 54.7 °F /  12.6 °C 29.9in /  1010.8hPa ESE 4.2mph /  6.8km/h 7mph /  11.3km/h 65.7% 0in /  0.0mm
21:14 66.2 °F /  19 °C 54.7 °F /  12.6 °C 29.9in /  1010.8hPa ESE 4mph /  6.5km/h 8.1mph /  13km/h 66.8% 0in /  0.0mm
21:19 65.8 °F /  18.8 °C 54.9 °F /  12.7 °C 29.9in /  1010.9hPa ESE 4.1mph /  6.6km/h 8mph /  12.9km/h 67.7% 0in /  0.0mm
21:24 65.7 °F /  18.7 °C 54.9 °F /  12.7 °C 29.9in /  1010.9hPa ESE 4.3mph /  6.9km/h 7.4mph /  11.9km/h 68.4% 0in /  0.0mm
21:29 65.3 °F /  18.5 °C 54.9 °F /  12.7 °C 29.9in /  1010.9hPa ESE 4.2mph /  6.8km/h 7mph /  11.3km/h 69.2% 0in /  0.0mm
21:34 64.9 °F /  18.3 °C 55 °F /  12.8 °C 29.9in /  1011.0hPa ESE 4mph /  6.5km/h 7mph /  11.3km/h 70% 0in /  0.0mm
21:39 64.9 °F /  18.3 °C 54.9 °F /  12.7 °C 29.9in /  1011.0hPa ESE 4mph /  6.5km/h 6mph /  9.7km/h 70% 0in /  0.0mm
21:44 64.8 °F /  18.2 °C 55 °F /  12.8 °C 29.9in /  1011.0hPa ESE 4mph /  6.5km/h 6.4mph /  10.3km/h 70.8% 0in /  0.0mm
21:49 64.6 °F /  18.1 °C 55 °F /  12.8 °C 29.9in /  1011.2hPa ESE 4mph /  6.5km/h 6mph /  9.7km/h 71.2% 0in /  0.0mm
21:54 64.4 °F /  18 °C 55.2 °F /  12.9 °C 29.9in /  1011.2hPa ESE 4mph /  6.5km/h 7.4mph /  11.9km/h 72% 0in /  0.0mm
21:59 64.2 °F /  17.9 °C 55 °F /  12.8 °C 29.9in /  1011.2hPa ESE 4.2mph /  6.7km/h 7mph /  11.3km/h 72% 0in /  0.0mm
22:04 64 °F /  17.8 °C 55.2 °F /  12.9 °C 29.9in /  1011.3hPa ESE 4.3mph /  6.9km/h 8.1mph /  13km/h 73% 0in /  0.0mm
22:09 63.9 °F /  17.7 °C 55.2 °F /  12.9 °C 29.9in /  1011.3hPa ESE 4.6mph /  7.4km/h 8.7mph /  14km/h 73.2% 0in /  0.0mm
22:14 63.9 °F /  17.7 °C 55.4 °F /  13 °C 29.9in /  1011.3hPa ESE 5.2mph /  8.4km/h 9.2mph /  14.8km/h 74% 0in /  0.0mm
22:19 63.7 °F /  17.6 °C 55.2 °F /  12.9 °C 29.9in /  1011.5hPa ESE 5.3mph /  8.5km/h 9mph /  14.5km/h 74% 0in /  0.0mm
22:24 63.5 °F /  17.5 °C 55.2 °F /  12.9 °C 29.9in /  1011.5hPa ESE 5.4mph /  8.7km/h 8mph /  12.9km/h 74.5% 0in /  0.0mm
22:29 63.3 °F /  17.4 °C 55.2 °F /  12.9 °C 29.9in /  1011.5hPa ESE 5.3mph /  8.6km/h 7.4mph /  11.9km/h 75% 0in /  0.0mm
22:34 63.1 °F /  17.3 °C 55.2 °F /  12.9 °C 29.9in /  1011.6hPa ESE 5.2mph /  8.4km/h 7mph /  11.3km/h 75% 0in /  0.0mm
22:39 63.1 °F /  17.3 °C 55 °F /  12.8 °C 29.9in /  1011.6hPa ESE 4.9mph /  7.9km/h 7mph /  11.3km/h 75% 0in /  0.0mm
22:44 63.1 °F /  17.3 °C 55.2 °F /  12.9 °C 29.9in /  1011.6hPa ESE 4.3mph /  6.9km/h 7.6mph /  12.2km/h 75.7% 0in /  0.0mm
22:49 63 °F /  17.2 °C 55.2 °F /  12.9 °C 29.9in /  1011.6hPa ESE 4.4mph /  7.1km/h 8.1mph /  13km/h 76% 0in /  0.0mm
22:54 63 °F /  17.2 °C 55.2 °F /  12.9 °C 29.9in /  1011.6hPa ESE 4.7mph /  7.6km/h 7mph /  11.3km/h 76% 0in /  0.0mm
22:59 62.8 °F /  17.1 °C 55 °F /  12.8 °C 29.9in /  1011.6hPa ESE 4.4mph /  7.1km/h 8.1mph /  13km/h 76% 0in /  0.0mm
23:04 62.8 °F /  17.1 °C 55.2 °F /  12.9 °C 29.9in /  1011.6hPa ESE 4mph /  6.5km/h 8mph /  12.9km/h 76.4% 0in /  0.0mm
23:09 62.6 °F /  17 °C 55.2 °F /  12.9 °C 29.9in /  1011.5hPa ESE 4mph /  6.5km/h 7mph /  11.3km/h 77% 0in /  0.0mm
23:14 62.8 °F /  17.1 °C 55.4 °F /  13 °C 29.9in /  1011.5hPa ESE 4mph /  6.5km/h 6mph /  9.7km/h 77% 0in /  0.0mm
23:19 62.8 °F /  17.1 °C 55.4 °F /  13 °C 29.9in /  1011.5hPa ESE 3.7mph /  6km/h 6.2mph /  10km/h 77% 0in /  0.0mm
23:24 62.6 °F /  17 °C 55.2 °F /  12.9 °C 29.9in /  1011.5hPa ESE 3.1mph /  5km/h 6.9mph /  11.1km/h 77% 0in /  0.0mm
23:29 62.6 °F /  17 °C 55.4 °F /  13 °C 29.9in /  1011.5hPa ESE 3.1mph /  5km/h 7mph /  11.3km/h 77% 0in /  0.0mm
23:34 62.6 °F /  17 °C 55.4 °F /  13 °C 29.9in /  1011.5hPa Este 3.1mph /  5km/h 5mph /  8km/h 77% 0in /  0.0mm
23:39 62.4 °F /  16.9 °C 55.2 °F /  12.9 °C 29.9in /  1011.5hPa Este 2.7mph /  4.4km/h 4mph /  6.4km/h 77% 0in /  0.0mm
23:44 62.4 °F /  16.9 °C 55.2 °F /  12.9 °C 29.9in /  1011.5hPa Este 2mph /  3.2km/h 4.6mph /  7.4km/h 77.5% 0in /  0.0mm
23:49 62.4 °F /  16.9 °C 55.6 °F /  13.1 °C 29.9in /  1011.5hPa ESE 1.9mph /  3.1km/h 5mph /  8km/h 78% 0in /  0.0mm
23:54 62.4 °F /  16.9 °C 55.4 °F /  13 °C 29.9in /  1011.4hPa ESE 1.8mph /  2.9km/h 6.4mph /  10.3km/h 78% 0in /  0.0mm
23:59 62.2 °F /  16.8 °C 55.2 °F /  12.9 °C 29.9in /  1011.4hPa ESE 2.2mph /  3.6km/h 6.9mph /  11.1km/h 78% 0in /  0.0mm
Murcia-Puente Tocinos, España
Compliments of Weather Underground - 3 mb

La estación de MeteoMurcia.com, publica sus datos en los siguientes proyectos:

Weather Underground PWS IMURCIAP2 Meteoclimatic www.awekas.at

W3Counter
Web Analytics